Time,TemperatureF,DewpointF,PressureIn,WindDirection,WindDirectionDegrees,WindSpeedMPH,WindSpeedGustMPH,Humidity,HourlyPrecipIn,Conditions,Clouds,dailyrainin,SoftwareType,DateUTC
2013-01-24 00:00:00,22.7,11.2,30.17,North,0,4.5,4.5,61,0.00,,,0.00,WUHU216HW,2013-01-24 05:00:00,
2013-01-24 00:01:00,22.7,11.2,30.17,North,0,4.5,4.5,61,0.00,,,0.00,WUHU216HW,2013-01-24 05:01:00,
2013-01-24 00:03:00,22.7,11.2,30.17,North,0,4.5,4.5,61,0.00,,,0.00,WUHU216HW,2013-01-24 05:03:00,
2013-01-24 00:08:00,22.7,11.2,30.17,North,0,4.5,4.5,61,0.00,,,0.00,WUHU216HW,2013-01-24 05:08:00,
2013-01-24 01:00:00,21.1,9.7,30.20,North,0,8.3,8.3,61,0.00,,,0.00,WUHU216HW,2013-01-24 06:00:00,
2013-01-24 01:05:00,21.1,9.7,30.20,North,0,8.3,8.3,61,0.00,,,0.00,WUHU216HW,2013-01-24 06:05:00,
2013-01-24 02:00:00,19.8,9.8,30.25,North,0,3.4,3.4,65,0.00,,,0.00,WUHU216HW,2013-01-24 07:00:00,
2013-01-24 02:05:00,19.8,9.8,30.25,North,0,3.4,3.4,65,0.00,,,0.00,WUHU216HW,2013-01-24 07:05:00,
2013-01-24 03:00:00,18.9,11.3,30.30,North,0,3.4,3.4,72,0.00,,,0.00,WUHU216HW,2013-01-24 08:00:00,
2013-01-24 03:05:00,18.9,11.3,30.30,North,0,3.4,3.4,72,0.00,,,0.00,WUHU216HW,2013-01-24 08:05:00,
2013-01-24 04:00:00,18.4,12.0,30.33,North,0,3.4,3.4,76,0.00,,,0.00,WUHU216HW,2013-01-24 09:00:00,
2013-01-24 04:05:00,18.4,12.0,30.33,North,0,3.4,3.4,76,0.00,,,0.00,WUHU216HW,2013-01-24 09:05:00,
2013-01-24 05:00:00,16.7,11.6,30.37,North,0,2.2,2.2,80,0.00,,,0.00,WUHU216HW,2013-01-24 10:00:00,
2013-01-24 05:05:00,16.7,11.6,30.37,North,0,2.2,2.2,80,0.00,,,0.00,WUHU216HW,2013-01-24 10:05:00,
2013-01-24 06:00:00,15.7,10.4,30.40,North,0,0.9,0.9,79,0.00,,,0.00,WUHU216HW,2013-01-24 11:00:00,
2013-01-24 06:05:00,15.5,9.8,30.41,North,0,1.1,2.0,78,0.00,,,0.00,WUHU216HW,2013-01-24 11:05:00,
2013-01-24 06:10:00,15.5,9.8,30.41,North,0,1.1,2.0,78,0.00,,,0.00,WUHU216HW,2013-01-24 11:10:00,
2013-01-24 06:15:00,15.3,9.6,30.41,North,0,1.3,1.8,78,0.00,,,0.00,WUHU216HW,2013-01-24 11:15:00,
2013-01-24 06:20:00,15.1,9.5,30.41,North,0,0.4,1.8,78,0.00,,,0.00,WUHU216HW,2013-01-24 11:20:00,
2013-01-24 06:25:00,14.9,9.0,30.41,North,0,1.3,1.8,77,0.00,,,0.00,WUHU216HW,2013-01-24 11:25:00,
2013-01-24 06:30:00,14.8,9.1,30.42,North,0,0.4,1.3,78,0.00,,,0.00,WUHU216HW,2013-01-24 11:30:00,
2013-01-24 06:35:00,14.8,9.1,30.43,North,0,1.3,1.3,78,0.00,,,0.00,WUHU216HW,2013-01-24 11:35:00,
2013-01-24 06:40:00,14.6,8.9,30.43,North,0,0.4,1.8,78,0.00,,,0.00,WUHU216HW,2013-01-24 11:40:00,
2013-01-24 06:45:00,14.8,9.1,30.44,North,0,0.4,1.8,78,0.00,,,0.00,WUHU216HW,2013-01-24 11:45:00,
2013-01-24 06:50:00,14.8,9.1,30.44,North,0,0.2,1.3,78,0.00,,,0.00,WUHU216HW,2013-01-24 11:50:00,
2013-01-24 06:55:00,14.6,8.9,30.44,North,0,0.0,1.3,78,0.00,,,0.00,WUHU216HW,2013-01-24 11:55:00,
2013-01-24 07:00:00,14.4,8.8,30.45,North,0,0.4,1.1,78,0.00,,,0.00,WUHU216HW,2013-01-24 12:00:00,
2013-01-24 07:05:00,14.2,8.7,30.45,North,0,1.1,1.1,78,0.00,,,0.00,WUHU216HW,2013-01-24 12:05:00,
2013-01-24 07:10:00,14.2,8.7,30.45,North,0,0.7,1.1,78,0.00,,,0.00,WUHU216HW,2013-01-24 12:10:00,
2013-01-24 07:15:00,14.0,8.5,30.45,North,0,0.4,1.1,78,0.00,,,0.00,WUHU216HW,2013-01-24 12:15:00,
2013-01-24 07:20:00,14.0,8.5,30.45,North,0,0.0,0.4,78,0.00,,,0.00,WUHU216HW,2013-01-24 12:20:00,
2013-01-24 07:25:00,14.0,8.7,30.46,NNW,338,0.7,1.8,79,0.00,,,0.00,WUHU216HW,2013-01-24 12:25:00,
2013-01-24 07:30:00,14.0,8.5,30.46,North,0,0.0,1.8,78,0.00,,,0.00,WUHU216HW,2013-01-24 12:30:00,
2013-01-24 07:35:00,14.0,8.7,30.46,North,0,0.4,1.8,79,0.00,,,0.00,WUHU216HW,2013-01-24 12:35:00,
2013-01-24 07:40:00,14.0,8.7,30.46,NNW,338,0.9,1.8,79,0.00,,,0.00,WUHU216HW,2013-01-24 12:40:00,
2013-01-24 07:45:00,14.0,9.0,30.46,NNW,338,1.3,1.8,80,0.00,,,0.00,WUHU216HW,2013-01-24 12:45:00,
2013-01-24 07:50:00,14.0,9.3,30.47,NNW,338,1.3,2.2,81,0.00,,,0.00,WUHU216HW,2013-01-24 12:50:00,
2013-01-24 07:55:00,14.0,9.8,30.46,NW,315,2.5,2.5,83,0.00,,,0.00,WUHU216HW,2013-01-24 12:55:00,
2013-01-24 08:00:00,14.0,9.8,30.47,WNW,293,1.1,2.5,83,0.00,,,0.00,WUHU216HW,2013-01-24 13:00:00,
2013-01-24 08:05:00,14.0,9.8,30.48,NNW,338,1.3,3.8,83,0.00,,,0.00,WUHU216HW,2013-01-24 13:05:00,
2013-01-24 08:10:00,14.0,9.8,30.49,NNW,338,0.9,3.8,83,0.00,,,0.00,WUHU216HW,2013-01-24 13:10:00,
2013-01-24 08:15:00,14.0,9.8,30.48,NNW,338,0.4,2.2,83,0.00,,,0.00,WUHU216HW,2013-01-24 13:15:00,
2013-01-24 08:20:00,13.9,9.6,30.47,NNW,338,1.1,2.9,83,0.00,,,0.00,WUHU216HW,2013-01-24 13:20:00,
2013-01-24 08:25:00,13.9,9.6,30.48,NNW,338,0.4,2.9,83,0.00,,,0.00,WUHU216HW,2013-01-24 13:25:00,
2013-01-24 08:30:00,13.9,9.4,30.48,NNW,338,0.0,1.8,82,0.00,,,0.00,WUHU216HW,2013-01-24 13:30:00,
2013-01-24 08:35:00,13.9,9.4,30.48,WNW,293,0.0,1.8,82,0.00,,,0.00,WUHU216HW,2013-01-24 13:35:00,
2013-01-24 08:40:00,13.9,9.1,30.48,NNW,338,0.0,1.8,81,0.00,,,0.00,WUHU216HW,2013-01-24 13:40:00,
2013-01-24 08:45:00,13.9,9.1,30.48,NNW,338,0.4,1.1,81,0.00,,,0.00,WUHU216HW,2013-01-24 13:45:00,
2013-01-24 08:50:00,13.9,9.1,30.48,NNW,338,1.1,1.1,81,0.00,,,0.00,WUHU216HW,2013-01-24 13:50:00,
2013-01-24 08:55:00,14.0,9.5,30.49,NNW,338,0.4,1.1,82,0.00,,,0.00,WUHU216HW,2013-01-24 13:55:00,
2013-01-24 09:00:00,14.0,9.8,30.50,NNW,338,0.9,2.0,83,0.00,,,0.00,WUHU216HW,2013-01-24 14:00:00,
2013-01-24 09:05:00,14.0,9.5,30.50,NNW,338,0.0,2.0,82,0.00,,,0.00,WUHU216HW,2013-01-24 14:05:00,
2013-01-24 09:10:00,14.2,9.5,30.51,NNW,338,0.0,0.9,81,0.00,,,0.00,WUHU216HW,2013-01-24 14:10:00,
2013-01-24 09:15:00,14.4,9.6,30.51,NNW,338,0.4,0.7,81,0.00,,,0.00,WUHU216HW,2013-01-24 14:15:00,
2013-01-24 09:20:00,14.6,9.8,30.52,NNW,338,0.4,0.7,81,0.00,,,0.00,WUHU216HW,2013-01-24 14:20:00,
2013-01-24 09:25:00,14.9,10.2,30.52,North,0,0.7,2.0,81,0.00,,,0.00,WUHU216HW,2013-01-24 14:25:00,
2013-01-24 09:30:00,14.9,9.9,30.52,NNW,338,1.1,2.0,80,0.00,,,0.00,WUHU216HW,2013-01-24 14:30:00,
2013-01-24 09:35:00,15.1,10.1,30.53,North,0,0.4,2.0,80,0.00,,,0.00,WUHU216HW,2013-01-24 14:35:00,
2013-01-24 09:40:00,15.3,10.3,30.53,North,0,0.9,1.8,80,0.00,,,0.00,WUHU216HW,2013-01-24 14:40:00,
2013-01-24 09:45:00,15.5,10.2,30.53,North,0,0.4,1.8,79,0.00,,,0.00,WUHU216HW,2013-01-24 14:45:00,
2013-01-24 09:50:00,15.7,10.6,30.53,North,0,1.8,1.8,80,0.00,,,0.00,WUHU216HW,2013-01-24 14:50:00,
2013-01-24 09:55:00,15.7,10.4,30.54,North,0,0.7,2.5,79,0.00,,,0.00,WUHU216HW,2013-01-24 14:55:00,
2013-01-24 10:00:00,15.8,10.5,30.54,NNW,338,1.6,4.0,79,0.00,,,0.00,WUHU216HW,2013-01-24 15:00:00,
2013-01-24 10:05:00,16.2,10.5,30.55,NNW,338,1.8,4.0,78,0.00,,,0.00,WUHU216HW,2013-01-24 15:05:00,
2013-01-24 10:10:00,16.4,10.7,30.55,North,0,1.8,2.0,78,0.00,,,0.00,WUHU216HW,2013-01-24 15:10:00,
2013-01-24 10:15:00,16.6,10.9,30.56,NNW,338,0.7,2.2,78,0.00,,,0.00,WUHU216HW,2013-01-24 15:15:00,
2013-01-24 10:20:00,16.9,10.9,30.56,NNE,23,4.0,4.0,77,0.00,,,0.00,WUHU216HW,2013-01-24 15:20:00,
2013-01-24 10:25:00,16.9,10.9,30.57,North,0,3.4,4.0,77,0.00,,,0.00,WUHU216HW,2013-01-24 15:25:00,
2013-01-24 10:30:00,17.1,10.8,30.57,NNW,338,3.4,3.8,76,0.00,,,0.00,WUHU216HW,2013-01-24 15:30:00,
2013-01-24 10:35:00,17.3,10.9,30.57,North,0,1.6,3.8,76,0.00,,,0.00,WUHU216HW,2013-01-24 15:35:00,
2013-01-24 10:40:00,17.6,11.0,30.57,North,0,1.1,3.1,75,0.00,,,0.00,WUHU216HW,2013-01-24 15:40:00,
2013-01-24 10:45:00,17.8,11.2,30.57,North,0,4.9,4.9,75,0.00,,,0.00,WUHU216HW,2013-01-24 15:45:00,
2013-01-24 10:50:00,18.4,11.3,30.57,North,0,2.7,4.9,74,0.00,,,0.00,WUHU216HW,2013-01-24 15:50:00,
2013-01-24 10:55:00,18.4,11.1,30.58,NE,45,5.4,5.4,73,0.00,,,0.00,WUHU216HW,2013-01-24 15:55:00,
2013-01-24 11:00:00,18.7,11.1,30.58,North,0,3.1,6.9,72,0.00,,,0.00,WUHU216HW,2013-01-24 16:00:00,
2013-01-24 11:05:00,18.7,10.8,30.59,North,0,1.8,6.9,71,0.00,,,0.00,WUHU216HW,2013-01-24 16:05:00,
2013-01-24 11:10:00,18.9,11.0,30.59,NNE,23,2.5,3.8,71,0.00,,,0.00,WUHU216HW,2013-01-24 16:10:00,
2013-01-24 11:15:00,19.1,11.2,30.59,North,0,3.8,5.6,71,0.00,,,0.00,WUHU216HW,2013-01-24 16:15:00,
2013-01-24 11:20:00,19.1,10.8,30.59,North,0,4.0,5.6,70,0.00,,,0.00,WUHU216HW,2013-01-24 16:20:00,
2013-01-24 11:25:00,19.4,10.8,30.59,North,0,4.7,5.4,69,0.00,,,0.00,WUHU216HW,2013-01-24 16:25:00,
2013-01-24 11:30:00,19.8,11.2,30.59,North,0,2.5,6.0,69,0.00,,,0.00,WUHU216HW,2013-01-24 16:30:00,
2013-01-24 11:35:00,20.0,11.3,30.59,North,0,2.0,6.0,69,0.00,,,0.00,WUHU216HW,2013-01-24 16:35:00,
2013-01-24 11:40:00,20.3,11.7,30.59,NNE,23,0.0,4.5,69,0.00,,,0.00,WUHU216HW,2013-01-24 16:40:00,
2013-01-24 11:45:00,20.3,10.7,30.59,North,0,1.6,2.9,66,0.00,,,0.00,WUHU216HW,2013-01-24 16:45:00,
2013-01-24 11:50:00,20.7,11.4,30.59,NNW,338,1.1,4.7,67,0.00,,,0.00,WUHU216HW,2013-01-24 16:50:00,
2013-01-24 11:55:00,20.3,10.7,30.59,North,0,2.2,4.7,66,0.00,,,0.00,WUHU216HW,2013-01-24 16:55:00,
2013-01-24 12:00:00,20.7,11.7,30.59,North,0,2.0,9.4,68,0.00,,,0.00,WUHU216HW,2013-01-24 17:00:00,
2013-01-24 12:05:00,21.2,12.0,30.58,NE,45,4.7,9.4,67,0.00,,,0.00,WUHU216HW,2013-01-24 17:05:00,
2013-01-24 12:10:00,22.3,12.6,30.58,SE,135,4.0,4.7,66,0.00,,,0.00,WUHU216HW,2013-01-24 17:10:00,
2013-01-24 12:15:00,22.9,13.1,30.58,East,90,0.7,4.7,66,0.00,,,0.00,WUHU216HW,2013-01-24 17:15:00,
2013-01-24 12:20:00,23.4,12.6,30.58,East,90,0.4,6.7,63,0.00,,,0.00,WUHU216HW,2013-01-24 17:20:00,
2013-01-24 12:25:00,23.8,13.3,30.57,NNW,338,4.7,6.7,64,0.00,,,0.00,WUHU216HW,2013-01-24 17:25:00,
2013-01-24 12:30:00,23.0,11.9,30.57,North,0,4.9,4.9,62,0.00,,,0.00,WUHU216HW,2013-01-24 17:30:00,
2013-01-24 12:35:00,22.9,12.1,30.57,NNE,23,4.3,4.9,63,0.00,,,0.00,WUHU216HW,2013-01-24 17:35:00,
2013-01-24 12:40:00,23.2,12.4,30.57,ENE,68,6.9,6.9,63,0.00,,,0.00,WUHU216HW,2013-01-24 17:40:00,
2013-01-24 12:45:00,22.9,11.3,30.57,East,90,1.8,6.9,61,0.00,,,0.00,WUHU216HW,2013-01-24 17:45:00,
2013-01-24 12:50:00,23.2,12.4,30.56,East,90,3.4,5.4,63,0.00,,,0.00,WUHU216HW,2013-01-24 17:50:00,
2013-01-24 12:55:00,23.6,12.4,30.56,NNE,23,3.6,5.4,62,0.00,,,0.00,WUHU216HW,2013-01-24 17:55:00,
2013-01-24 13:00:00,23.6,11.7,30.56,ENE,68,3.1,5.4,60,0.00,,,0.00,WUHU216HW,2013-01-24 18:00:00,
2013-01-24 13:05:00,23.8,11.5,30.56,NNE,23,0.9,5.4,59,0.00,,,0.00,WUHU216HW,2013-01-24 18:05:00,
2013-01-24 13:10:00,23.9,12.1,30.56,ESE,113,4.0,4.0,60,0.00,,,0.00,WUHU216HW,2013-01-24 18:10:00,
2013-01-24 13:15:00,24.1,12.6,30.55,ESE,113,4.3,4.3,61,0.00,,,0.00,WUHU216HW,2013-01-24 18:15:00,
2013-01-24 13:20:00,24.7,12.3,30.55,NE,45,0.9,4.3,59,0.00,,,0.00,WUHU216HW,2013-01-24 18:20:00,
2013-01-24 13:25:00,24.7,12.3,30.55,East,90,1.6,4.0,59,0.00,,,0.00,WUHU216HW,2013-01-24 18:25:00,
2013-01-24 13:30:00,24.8,10.4,30.54,East,90,4.7,4.7,54,0.00,,,0.00,WUHU216HW,2013-01-24 18:30:00,
2013-01-24 13:35:00,24.5,10.5,30.54,ESE,113,1.1,4.7,55,0.00,,,0.00,WUHU216HW,2013-01-24 18:35:00,
2013-01-24 13:40:00,24.8,10.4,30.54,SE,135,0.0,4.7,54,0.00,,,0.00,WUHU216HW,2013-01-24 18:40:00,
2013-01-24 13:45:00,24.8,10.9,30.54,North,0,1.3,3.4,55,0.00,,,0.00,WUHU216HW,2013-01-24 18:45:00,
2013-01-24 13:50:00,24.8,10.4,30.54,NNW,338,4.5,5.4,54,0.00,,,0.00,WUHU216HW,2013-01-24 18:50:00,
2013-01-24 13:55:00,24.7,10.4,30.54,North,0,0.9,6.3,54,0.00,,,0.00,WUHU216HW,2013-01-24 18:55:00,
2013-01-24 14:00:00,24.3,10.0,30.53,NNE,23,2.5,6.3,54,0.00,,,0.00,WUHU216HW,2013-01-24 19:00:00,
2013-01-24 14:05:00,24.5,10.2,30.53,NE,45,1.1,6.3,54,0.00,,,0.00,WUHU216HW,2013-01-24 19:05:00,
2013-01-24 14:10:00,24.5,9.7,30.53,NNE,23,5.1,6.3,53,0.00,,,0.00,WUHU216HW,2013-01-24 19:10:00,
2013-01-24 14:15:00,24.7,9.9,30.53,WNW,293,0.2,6.0,53,0.00,,,0.00,WUHU216HW,2013-01-24 19:15:00,
2013-01-24 14:20:00,24.3,9.5,30.53,NNE,23,0.0,4.0,53,0.00,,,0.00,WUHU216HW,2013-01-24 19:20:00,
2013-01-24 14:25:00,24.7,10.4,30.52,SE,135,0.0,2.9,54,0.00,,,0.00,WUHU216HW,2013-01-24 19:25:00,
2013-01-24 14:30:00,24.8,10.1,30.52,NE,45,3.8,3.8,53,0.00,,,0.00,WUHU216HW,2013-01-24 19:30:00,
2013-01-24 14:35:00,24.8,9.3,30.52,NE,45,4.7,6.3,51,0.00,,,0.00,WUHU216HW,2013-01-24 19:35:00,
2013-01-24 14:40:00,24.8,8.8,30.52,ENE,68,1.8,6.3,50,0.00,,,0.00,WUHU216HW,2013-01-24 19:40:00,
2013-01-24 14:45:00,25.2,9.2,30.52,ESE,113,6.3,6.3,50,0.00,,,0.00,WUHU216HW,2013-01-24 19:45:00,
2013-01-24 14:50:00,25.0,9.4,30.52,East,90,3.4,6.3,51,0.00,,,0.00,WUHU216HW,2013-01-24 19:50:00,
2013-01-24 14:55:00,25.2,9.2,30.52,East,90,0.9,6.0,50,0.00,,,0.00,WUHU216HW,2013-01-24 19:55:00,
2013-01-24 15:00:00,24.8,8.4,30.52,NNE,23,1.6,6.7,49,0.00,,,0.00,WUHU216HW,2013-01-24 20:00:00,
2013-01-24 15:05:00,24.8,8.8,30.53,East,90,1.6,6.7,50,0.00,,,0.00,WUHU216HW,2013-01-24 20:05:00,
2013-01-24 15:10:00,25.0,9.0,30.52,ESE,113,2.7,4.5,50,0.00,,,0.00,WUHU216HW,2013-01-24 20:10:00,
2013-01-24 15:15:00,24.8,7.8,30.52,ESE,113,1.3,3.6,48,0.00,,,0.00,WUHU216HW,2013-01-24 20:15:00,
2013-01-24 15:17:00,24.8,7.8,30.52,East,90,2.2,2.2,48,0.00,,,0.00,WUHU216HW,2013-01-24 20:17:00,
2013-01-24 15:20:00,24.8,7.8,30.52,East,90,2.2,2.2,48,0.00,,,0.00,WUHU216HW,2013-01-24 20:20:00,
2013-01-24 15:25:00,24.8,7.8,30.52,East,90,2.2,2.2,48,0.00,,,0.00,WUHU216HW,2013-01-24 20:25:00,
2013-01-24 15:47:00,25.2,7.7,30.51,ESE,113,1.8,1.8,47,0.00,,,0.00,WUHU216HW,2013-01-24 20:47:00,
2013-01-24 15:52:00,25.6,8.5,30.51,East,90,0.9,3.6,48,0.00,,,0.00,WUHU216HW,2013-01-24 20:52:00,
2013-01-24 15:57:00,25.4,6.4,30.51,East,90,0.7,5.4,44,0.00,,,0.00,WUHU216HW,2013-01-24 20:57:00,
2013-01-24 16:02:00,25.0,7.0,30.51,ENE,68,2.7,5.4,46,0.00,,,0.00,WUHU216HW,2013-01-24 21:02:00,
2013-01-24 16:07:00,24.8,6.8,30.51,North,0,4.3,4.7,46,0.00,,,0.00,WUHU216HW,2013-01-24 21:07:00,
2013-01-24 16:12:00,24.8,6.8,30.51,NNE,23,2.0,4.7,46,0.00,,,0.00,WUHU216HW,2013-01-24 21:12:00,
2013-01-24 16:17:00,24.8,6.4,30.51,ESE,113,0.7,4.3,45,0.00,,,0.00,WUHU216HW,2013-01-24 21:17:00,
2013-01-24 16:22:00,25.2,7.7,30.50,ESE,113,3.1,3.1,47,0.00,,,0.00,WUHU216HW,2013-01-24 21:22:00,
2013-01-24 16:27:00,25.2,7.2,30.50,SE,135,2.5,3.8,46,0.00,,,0.00,WUHU216HW,2013-01-24 21:27:00,
2013-01-24 16:32:00,24.8,6.4,30.50,ESE,113,2.0,3.8,45,0.00,,,0.00,WUHU216HW,2013-01-24 21:32:00,
2013-01-24 16:37:00,24.8,6.8,30.51,NE,45,0.4,3.4,46,0.00,,,0.00,WUHU216HW,2013-01-24 21:37:00,
2013-01-24 16:42:00,24.8,6.4,30.50,SE,135,2.5,5.1,45,0.00,,,0.00,WUHU216HW,2013-01-24 21:42:00,
2013-01-24 16:47:00,24.8,6.0,30.50,ESE,113,3.8,5.1,44,0.00,,,0.00,WUHU216HW,2013-01-24 21:47:00,
2013-01-24 16:52:00,24.7,5.8,30.50,NNE,23,2.5,4.5,44,0.00,,,0.00,WUHU216HW,2013-01-24 21:52:00,
2013-01-24 17:00:00,24.5,5.6,30.50,East,90,4.0,4.0,44,0.00,,,0.00,WUHU216HW,2013-01-24 22:00:00,
2013-01-24 17:05:00,24.3,5.4,30.50,East,90,3.8,4.7,44,0.00,,,0.00,WUHU216HW,2013-01-24 22:05:00,
2013-01-24 17:10:00,24.1,5.8,30.49,ENE,68,1.3,4.7,45,0.00,,,0.00,WUHU216HW,2013-01-24 22:10:00,
2013-01-24 17:15:00,24.1,6.2,30.49,East,90,0.4,3.1,46,0.00,,,0.00,WUHU216HW,2013-01-24 22:15:00,
2013-01-24 17:20:00,24.1,6.2,30.49,SE,135,1.3,2.5,46,0.00,,,0.00,WUHU216HW,2013-01-24 22:20:00,
2013-01-24 17:25:00,24.1,5.8,30.50,East,90,3.4,3.4,45,0.00,,,0.00,WUHU216HW,2013-01-24 22:25:00,
2013-01-24 17:30:00,23.6,5.8,30.50,ENE,68,0.0,4.7,46,0.00,,,0.00,WUHU216HW,2013-01-24 22:30:00,
2013-01-24 17:35:00,23.4,5.6,30.50,ESE,113,1.8,5.1,46,0.00,,,0.00,WUHU216HW,2013-01-24 22:35:00,
2013-01-24 17:40:00,23.0,4.8,30.50,East,90,2.5,5.1,45,0.00,,,0.00,WUHU216HW,2013-01-24 22:40:00,
2013-01-24 17:45:00,22.9,5.6,30.50,ESE,113,2.0,4.3,47,0.00,,,0.00,WUHU216HW,2013-01-24 22:45:00,
2013-01-24 17:50:00,22.7,5.4,30.50,ESE,113,4.0,4.0,47,0.00,,,0.00,WUHU216HW,2013-01-24 22:50:00,
2013-01-24 17:55:00,22.5,5.7,30.50,East,90,4.7,4.7,48,0.00,,,0.00,WUHU216HW,2013-01-24 22:55:00,
2013-01-24 18:00:00,22.5,5.7,30.50,ENE,68,2.5,4.7,48,0.00,,,0.00,WUHU216HW,2013-01-24 23:00:00,
2013-01-24 18:05:00,22.3,5.5,30.50,SE,135,1.1,5.4,48,0.00,,,0.00,WUHU216HW,2013-01-24 23:05:00,
2013-01-24 18:10:00,22.1,5.9,30.50,ESE,113,1.1,5.4,49,0.00,,,0.00,WUHU216HW,2013-01-24 23:10:00,
2013-01-24 18:15:00,22.1,5.9,30.50,East,90,4.0,6.7,49,0.00,,,0.00,WUHU216HW,2013-01-24 23:15:00,
2013-01-24 18:20:00,22.1,5.9,30.50,ENE,68,2.2,6.7,49,0.00,,,0.00,WUHU216HW,2013-01-24 23:20:00,
2013-01-24 18:25:00,22.0,6.1,30.50,East,90,3.1,4.0,50,0.00,,,0.00,WUHU216HW,2013-01-24 23:25:00,
2013-01-24 18:30:00,22.0,6.1,30.50,East,90,1.6,4.3,50,0.00,,,0.00,WUHU216HW,2013-01-24 23:30:00,
2013-01-24 18:35:00,22.0,6.6,30.50,East,90,4.0,4.3,51,0.00,,,0.00,WUHU216HW,2013-01-24 23:35:00,
2013-01-24 18:40:00,22.0,6.6,30.49,ESE,113,2.5,4.0,51,0.00,,,0.00,WUHU216HW,2013-01-24 23:40:00,
2013-01-24 18:45:00,22.0,6.9,30.49,SE,135,1.8,4.0,52,0.00,,,0.00,WUHU216HW,2013-01-24 23:45:00,
2013-01-24 18:50:00,21.8,6.8,30.49,SE,135,1.3,3.1,52,0.00,,,0.00,WUHU216HW,2013-01-24 23:50:00,
2013-01-24 18:55:00,21.8,7.2,30.50,ESE,113,0.0,2.7,53,0.00,,,0.00,WUHU216HW,2013-01-24 23:55:00,
2013-01-24 19:00:00,21.8,7.2,30.50,East,90,2.5,3.6,53,0.00,,,0.00,WUHU216HW,2013-01-25 00:00:00,
2013-01-24 19:05:00,21.8,7.2,30.50,East,90,3.6,3.6,53,0.00,,,0.00,WUHU216HW,2013-01-25 00:05:00,
2013-01-24 19:10:00,21.8,7.2,30.49,East,90,5.1,5.1,53,0.00,,,0.00,WUHU216HW,2013-01-25 00:10:00,
2013-01-24 19:15:00,21.8,7.2,30.49,SSE,158,4.5,5.1,53,0.00,,,0.00,WUHU216HW,2013-01-25 00:15:00,
2013-01-24 19:20:00,21.8,7.6,30.48,SE,135,4.9,4.9,54,0.00,,,0.00,WUHU216HW,2013-01-25 00:20:00,
2013-01-24 19:25:00,21.8,7.6,30.49,East,90,2.5,4.9,54,0.00,,,0.00,WUHU216HW,2013-01-25 00:25:00,
2013-01-24 19:30:00,21.8,7.6,30.49,East,90,2.9,4.5,54,0.00,,,0.00,WUHU216HW,2013-01-25 00:30:00,
2013-01-24 19:35:00,21.8,7.6,30.49,SE,135,2.7,5.1,54,0.00,,,0.00,WUHU216HW,2013-01-25 00:35:00,
2013-01-24 19:40:00,21.8,7.6,30.49,NE,45,4.0,5.1,54,0.00,,,0.00,WUHU216HW,2013-01-25 00:40:00,
2013-01-24 19:45:00,21.8,8.0,30.48,ESE,113,3.1,5.4,55,0.00,,,0.00,WUHU216HW,2013-01-25 00:45:00,
2013-01-24 19:50:00,21.6,7.8,30.48,SE,135,3.1,5.4,55,0.00,,,0.00,WUHU216HW,2013-01-25 00:50:00,
2013-01-24 19:55:00,21.6,7.8,30.47,ESE,113,3.6,4.3,55,0.00,,,0.00,WUHU216HW,2013-01-25 00:55:00,
2013-01-24 20:00:00,21.6,8.2,30.47,SE,135,5.8,8.7,56,0.00,,,0.00,WUHU216HW,2013-01-25 01:00:00,
2013-01-24 20:05:00,21.6,8.2,30.47,ENE,68,7.6,8.7,56,0.00,,,0.00,WUHU216HW,2013-01-25 01:05:00,
2013-01-24 20:10:00,21.6,8.7,30.47,ESE,113,2.5,7.6,57,0.00,,,0.00,WUHU216HW,2013-01-25 01:10:00,
2013-01-24 20:15:00,21.6,8.7,30.47,East,90,5.4,7.4,57,0.00,,,0.00,WUHU216HW,2013-01-25 01:15:00,
2013-01-24 20:20:00,21.6,8.7,30.47,ENE,68,2.0,6.5,57,0.00,,,0.00,WUHU216HW,2013-01-25 01:20:00,
2013-01-24 20:25:00,21.4,8.9,30.46,ESE,113,3.6,6.5,58,0.00,,,0.00,WUHU216HW,2013-01-25 01:25:00,
2013-01-24 20:30:00,21.4,9.3,30.47,East,90,4.9,5.1,59,0.00,,,0.00,WUHU216HW,2013-01-25 01:30:00,
2013-01-24 20:35:00,21.4,9.3,30.47,SE,135,2.2,6.0,59,0.00,,,0.00,WUHU216HW,2013-01-25 01:35:00,
2013-01-24 20:40:00,21.4,9.3,30.47,East,90,2.0,6.0,59,0.00,,,0.00,WUHU216HW,2013-01-25 01:40:00,
2013-01-24 20:45:00,21.4,9.7,30.47,ENE,68,3.4,6.0,60,0.00,,,0.00,WUHU216HW,2013-01-25 01:45:00,
2013-01-24 20:50:00,21.4,9.7,30.47,ESE,113,2.9,8.5,60,0.00,,,0.00,WUHU216HW,2013-01-25 01:50:00,
2013-01-24 20:55:00,21.4,9.7,30.47,East,90,1.8,8.5,60,0.00,,,0.00,WUHU216HW,2013-01-25 01:55:00,
2013-01-24 21:00:00,21.4,9.7,30.46,ESE,113,3.8,7.6,60,0.00,,,0.00,WUHU216HW,2013-01-25 02:00:00,
2013-01-24 21:05:00,21.4,10.1,30.45,East,90,6.9,8.3,61,0.00,,,0.00,WUHU216HW,2013-01-25 02:05:00,
2013-01-24 21:10:00,21.4,10.1,30.45,ESE,113,3.6,9.4,61,0.00,,,0.00,WUHU216HW,2013-01-25 02:10:00,
2013-01-24 21:15:00,21.4,10.1,30.45,ESE,113,2.5,9.4,61,0.00,,,0.00,WUHU216HW,2013-01-25 02:15:00,
2013-01-24 21:20:00,21.4,10.1,30.45,East,90,4.9,8.9,61,0.00,,,0.00,WUHU216HW,2013-01-25 02:20:00,
2013-01-24 21:25:00,21.4,10.1,30.44,East,90,4.5,8.9,61,0.00,,,0.00,WUHU216HW,2013-01-25 02:25:00,
2013-01-24 21:30:00,21.4,10.1,30.45,ESE,113,4.0,6.9,61,0.00,,,0.00,WUHU216HW,2013-01-25 02:30:00,
2013-01-24 21:35:00,21.4,10.1,30.45,SE,135,4.5,5.1,61,0.00,,,0.00,WUHU216HW,2013-01-25 02:35:00,
2013-01-24 21:40:00,21.4,10.1,30.45,SE,135,7.8,8.1,61,0.00,,,0.00,WUHU216HW,2013-01-25 02:40:00,
2013-01-24 21:45:00,21.4,10.1,30.45,ESE,113,5.8,8.1,61,0.00,,,0.00,WUHU216HW,2013-01-25 02:45:00,
2013-01-24 21:50:00,21.4,10.1,30.45,NNW,338,1.3,7.2,61,0.00,,,0.00,WUHU216HW,2013-01-25 02:50:00,
2013-01-24 21:55:00,21.4,10.1,30.45,ESE,113,3.4,6.3,61,0.00,,,0.00,WUHU216HW,2013-01-25 02:55:00,
2013-01-24 22:00:00,21.4,10.1,30.45,East,90,6.0,6.3,61,0.00,,,0.00,WUHU216HW,2013-01-25 03:00:00,
2013-01-24 22:05:00,21.4,10.1,30.45,ESE,113,2.0,7.8,61,0.00,,,0.00,WUHU216HW,2013-01-25 03:05:00,
2013-01-24 22:10:00,21.4,10.1,30.44,SE,135,3.8,7.8,61,0.00,,,0.00,WUHU216HW,2013-01-25 03:10:00,
2013-01-24 22:15:00,21.2,9.9,30.44,ESE,113,8.3,8.3,61,0.00,,,0.00,WUHU216HW,2013-01-25 03:15:00,
2013-01-24 22:20:00,21.2,9.9,30.43,ESE,113,7.4,8.3,61,0.00,,,0.00,WUHU216HW,2013-01-25 03:20:00,
2013-01-24 22:25:00,21.2,9.9,30.43,SE,135,4.7,7.4,61,0.00,,,0.00,WUHU216HW,2013-01-25 03:25:00,
2013-01-24 22:30:00,21.2,10.3,30.42,ESE,113,6.3,8.7,62,0.00,,,0.00,WUHU216HW,2013-01-25 03:30:00,
2013-01-24 22:35:00,21.2,10.3,30.42,ESE,113,5.8,8.7,62,0.00,,,0.00,WUHU216HW,2013-01-25 03:35:00,
2013-01-24 22:40:00,21.2,10.3,30.42,ESE,113,4.0,7.6,62,0.00,,,0.00,WUHU216HW,2013-01-25 03:40:00,
2013-01-24 22:45:00,21.2,10.3,30.41,East,90,4.7,6.9,62,0.00,,,0.00,WUHU216HW,2013-01-25 03:45:00,
2013-01-24 22:50:00,21.2,10.3,30.41,ESE,113,3.4,6.9,62,0.00,,,0.00,WUHU216HW,2013-01-25 03:50:00,
2013-01-24 22:55:00,21.2,10.3,30.41,ENE,68,7.6,7.6,62,0.00,,,0.00,WUHU216HW,2013-01-25 03:55:00,
2013-01-24 23:00:00,21.2,10.5,30.41,East,90,2.9,7.6,63,0.00,,,0.00,WUHU216HW,2013-01-25 04:00:00,
2013-01-24 23:05:00,21.2,10.3,30.41,ENE,68,4.0,7.6,62,0.00,,,0.00,WUHU216HW,2013-01-25 04:05:00,
2013-01-24 23:10:00,21.2,10.5,30.40,SE,135,3.8,8.9,63,0.00,,,0.00,WUHU216HW,2013-01-25 04:10:00,
2013-01-24 23:15:00,21.2,10.3,30.41,South,180,1.3,8.9,62,0.00,,,0.00,WUHU216HW,2013-01-25 04:15:00,
2013-01-24 23:20:00,21.2,10.5,30.41,ESE,113,5.8,7.6,63,0.00,,,0.00,WUHU216HW,2013-01-25 04:20:00,
2013-01-24 23:25:00,21.2,10.3,30.41,ESE,113,3.6,8.9,62,0.00,,,0.00,WUHU216HW,2013-01-25 04:25:00,
2013-01-24 23:30:00,21.1,10.1,30.41,SE,135,4.7,8.9,62,0.00,,,0.00,WUHU216HW,2013-01-25 04:30:00,
2013-01-24 23:35:00,21.1,10.1,30.41,SSE,158,6.9,6.9,62,0.00,,,0.00,WUHU216HW,2013-01-25 04:35:00,
2013-01-24 23:40:00,21.1,10.1,30.41,ESE,113,3.8,6.9,62,0.00,,,0.00,WUHU216HW,2013-01-25 04:40:00,
2013-01-24 23:45:00,21.2,10.5,30.40,ESE,113,4.0,6.5,63,0.00,,,0.00,WUHU216HW,2013-01-25 04:45:00,
2013-01-24 23:50:00,21.2,10.3,30.40,ESE,113,4.7,7.2,62,0.00,,,0.00,WUHU216HW,2013-01-25 04:50:00,
2013-01-24 23:55:00,21.2,10.3,30.39,SE,135,6.9,9.6,62,0.00,,,0.00,WUHU216HW,2013-01-25 04:55:00,